sensor_id;sensor_type;location;lat;lon;timestamp;P1;durP1;ratioP1;P2;durP2;ratioP2
57249;SDS011;43102;52.014;-0.680;2023-03-14T00:00:00;3.80;;;2.10;;
57249;SDS011;43102;52.014;-0.680;2023-03-14T00:01:08;3.80;;;2.10;;
57249;SDS011;43102;52.014;-0.680;2023-03-14T00:02:00;3.80;;;2.10;;
57249;SDS011;43102;52.014;-0.680;2023-03-14T00:03:00;3.80;;;2.10;;
57249;SDS011;43102;52.014;-0.680;2023-03-14T00:04:00;3.80;;;2.10;;
57249;SDS011;43102;52.014;-0.680;2023-03-14T00:05:06;3.80;;;2.10;;
57249;SDS011;43102;52.014;-0.680;2023-03-14T00:06:03;3.80;;;2.10;;
57249;SDS011;43102;52.014;-0.680;2023-03-14T00:07:00;3.80;;;2.10;;
57249;SDS011;43102;52.014;-0.680;2023-03-14T00:08:00;3.80;;;2.10;;
57249;SDS011;43102;52.014;-0.680;2023-03-14T00:09:00;3.80;;;2.10;;
57249;SDS011;43102;52.014;-0.680;2023-03-14T00:10:03;3.80;;;2.10;;
57249;SDS011;43102;52.014;-0.680;2023-03-14T00:11:18;3.80;;;2.10;;
57249;SDS011;43102;52.014;-0.680;2023-03-14T00:12:02;3.80;;;2.10;;
57249;SDS011;43102;52.014;-0.680;2023-03-14T00:13:00;3.80;;;2.10;;
57249;SDS011;43102;52.014;-0.680;2023-03-14T00:14:00;3.80;;;2.10;;
57249;SDS011;43102;52.014;-0.680;2023-03-14T00:15:03;3.80;;;2.10;;
57249;SDS011;43102;52.014;-0.680;2023-03-14T00:16:04;3.80;;;2.10;;
57249;SDS011;43102;52.014;-0.680;2023-03-14T00:17:00;3.80;;;2.10;;
57249;SDS011;43102;52.014;-0.680;2023-03-14T00:18:01;3.80;;;2.10;;
57249;SDS011;43102;52.014;-0.680;2023-03-14T00:19:01;3.80;;;2.10;;
57249;SDS011;43102;52.014;-0.680;2023-03-14T00:20:08;3.80;;;2.10;;
57249;SDS011;43102;52.014;-0.680;2023-03-14T00:21:02;3.80;;;2.10;;
57249;SDS011;43102;52.014;-0.680;2023-03-14T00:22:00;3.80;;;2.10;;
57249;SDS011;43102;52.014;-0.680;2023-03-14T00:23:00;2.50;;;2.30;;
57249;SDS011;43102;52.014;-0.680;2023-03-14T00:24:00;2.50;;;2.30;;
57249;SDS011;43102;52.014;-0.680;2023-03-14T00:25:01;2.50;;;2.30;;
57249;SDS011;43102;52.014;-0.680;2023-03-14T00:26:02;2.50;;;2.30;;
57249;SDS011;43102;52.014;-0.680;2023-03-14T00:27:00;2.50;;;2.30;;
57249;SDS011;43102;52.014;-0.680;2023-03-14T00:28:00;2.50;;;2.30;;
57249;SDS011;43102;52.014;-0.680;2023-03-14T00:29:00;2.50;;;2.30;;
57249;SDS011;43102;52.014;-0.680;2023-03-14T00:30:01;2.50;;;2.30;;
57249;SDS011;43102;52.014;-0.680;2023-03-14T00:31:06;2.50;;;2.30;;
57249;SDS011;43102;52.014;-0.680;2023-03-14T00:32:00;2.50;;;2.30;;
57249;SDS011;43102;52.014;-0.680;2023-03-14T00:33:00;2.50;;;2.30;;
57249;SDS011;43102;52.014;-0.680;2023-03-14T00:34:00;2.50;;;2.30;;
57249;SDS011;43102;52.014;-0.680;2023-03-14T00:35:00;2.50;;;2.30;;
57249;SDS011;43102;52.014;-0.680;2023-03-14T00:36:03;2.50;;;2.30;;
57249;SDS011;43102;52.014;-0.680;2023-03-14T00:37:00;2.50;;;2.30;;
57249;SDS011;43102;52.014;-0.680;2023-03-14T00:38:00;2.50;;;2.30;;
57249;SDS011;43102;52.014;-0.680;2023-03-14T00:39:00;2.50;;;2.30;;
57249;SDS011;43102;52.014;-0.680;2023-03-14T00:40:00;2.50;;;2.30;;
57249;SDS011;43102;52.014;-0.680;2023-03-14T00:41:05;2.50;;;2.30;;
57249;SDS011;43102;52.014;-0.680;2023-03-14T00:42:00;2.50;;;2.30;;
57249;SDS011;43102;52.014;-0.680;2023-03-14T00:43:00;2.50;;;2.30;;
57249;SDS011;43102;52.014;-0.680;2023-03-14T00:44:00;2.50;;;2.30;;
57249;SDS011;43102;52.014;-0.680;2023-03-14T00:45:00;2.50;;;2.30;;
57249;SDS011;43102;52.014;-0.680;2023-03-14T00:46:00;2.50;;;2.30;;
57249;SDS011;43102;52.014;-0.680;2023-03-14T00:47:00;2.50;;;2.30;;
57249;SDS011;43102;52.014;-0.680;2023-03-14T00:48:00;2.50;;;2.30;;
57249;SDS011;43102;52.014;-0.680;2023-03-14T00:49:00;2.50;;;2.30;;
57249;SDS011;43102;52.014;-0.680;2023-03-14T00:50:01;2.50;;;2.30;;
57249;SDS011;43102;52.014;-0.680;2023-03-14T00:51:01;2.50;;;2.30;;
57249;SDS011;43102;52.014;-0.680;2023-03-14T00:52:00;2.50;;;2.30;;
57249;SDS011;43102;52.014;-0.680;2023-03-14T00:53:00;6.70;;;3.20;;
57249;SDS011;43102;52.014;-0.680;2023-03-14T00:54:00;6.70;;;3.20;;
57249;SDS011;43102;52.014;-0.680;2023-03-14T00:55:00;6.70;;;3.20;;
57249;SDS011;43102;52.014;-0.680;2023-03-14T00:56:03;6.70;;;3.20;;
57249;SDS011;43102;52.014;-0.680;2023-03-14T00:57:00;6.70;;;3.20;;
57249;SDS011;43102;52.014;-0.680;2023-03-14T00:58:02;6.70;;;3.20;;
57249;SDS011;43102;52.014;-0.680;2023-03-14T00:59:00;6.70;;;3.20;;
57249;SDS011;43102;52.014;-0.680;2023-03-14T01:00:00;6.70;;;3.20;;
57249;SDS011;43102;52.014;-0.680;2023-03-14T01:01:05;6.70;;;3.20;;
57249;SDS011;43102;52.014;-0.680;2023-03-14T01:02:00;6.70;;;3.20;;
57249;SDS011;43102;52.014;-0.680;2023-03-14T01:03:01;6.70;;;3.20;;
57249;SDS011;43102;52.014;-0.680;2023-03-14T01:04:00;6.70;;;3.20;;
57249;SDS011;43102;52.014;-0.680;2023-03-14T01:05:00;6.70;;;3.20;;
57249;SDS011;43102;52.014;-0.680;2023-03-14T01:06:10;6.70;;;3.20;;
57249;SDS011;43102;52.014;-0.680;2023-03-14T01:07:00;6.70;;;3.20;;
57249;SDS011;43102;52.014;-0.680;2023-03-14T01:08:00;6.70;;;3.20;;
57249;SDS011;43102;52.014;-0.680;2023-03-14T01:09:00;6.70;;;3.20;;
57249;SDS011;43102;52.014;-0.680;2023-03-14T01:10:00;6.70;;;3.20;;
57249;SDS011;43102;52.014;-0.680;2023-03-14T01:11:04;6.70;;;3.20;;
57249;SDS011;43102;52.014;-0.680;2023-03-14T01:12:00;6.70;;;3.20;;
57249;SDS011;43102;52.014;-0.680;2023-03-14T01:13:00;6.70;;;3.20;;
57249;SDS011;43102;52.014;-0.680;2023-03-14T01:14:02;6.70;;;3.20;;
57249;SDS011;43102;52.014;-0.680;2023-03-14T01:15:00;6.70;;;3.20;;
57249;SDS011;43102;52.014;-0.680;2023-03-14T01:16:02;6.70;;;3.20;;
57249;SDS011;43102;52.014;-0.680;2023-03-14T01:17:00;6.70;;;3.20;;
57249;SDS011;43102;52.014;-0.680;2023-03-14T01:18:00;6.70;;;3.20;;
57249;SDS011;43102;52.014;-0.680;2023-03-14T01:19:01;6.70;;;3.20;;
57249;SDS011;43102;52.014;-0.680;2023-03-14T01:20:01;6.70;;;3.20;;
57249;SDS011;43102;52.014;-0.680;2023-03-14T01:21:02;6.70;;;3.20;;
57249;SDS011;43102;52.014;-0.680;2023-03-14T01:22:00;6.70;;;3.20;;
57249;SDS011;43102;52.014;-0.680;2023-03-14T01:23:00;5.60;;;2.80;;
57249;SDS011;43102;52.014;-0.680;2023-03-14T01:24:03;5.60;;;2.80;;
57249;SDS011;43102;52.014;-0.680;2023-03-14T01:25:00;5.60;;;2.80;;
57249;SDS011;43102;52.014;-0.680;2023-03-14T01:26:00;5.60;;;2.80;;
57249;SDS011;43102;52.014;-0.680;2023-03-14T01:27:00;5.60;;;2.80;;
57249;SDS011;43102;52.014;-0.680;2023-03-14T01:28:00;5.60;;;2.80;;
57249;SDS011;43102;52.014;-0.680;2023-03-14T01:29:01;5.60;;;2.80;;
57249;SDS011;43102;52.014;-0.680;2023-03-14T01:30:00;5.60;;;2.80;;
57249;SDS011;43102;52.014;-0.680;2023-03-14T01:31:05;5.60;;;2.80;;
57249;SDS011;43102;52.014;-0.680;2023-03-14T01:32:00;5.60;;;2.80;;
57249;SDS011;43102;52.014;-0.680;2023-03-14T01:33:00;5.60;;;2.80;;
57249;SDS011;43102;52.014;-0.680;2023-03-14T01:34:01;5.60;;;2.80;;
57249;SDS011;43102;52.014;-0.680;2023-03-14T01:35:00;5.60;;;2.80;;
57249;SDS011;43102;52.014;-0.680;2023-03-14T01:36:02;5.60;;;2.80;;
57249;SDS011;43102;52.014;-0.680;2023-03-14T01:37:00;5.60;;;2.80;;
57249;SDS011;43102;52.014;-0.680;2023-03-14T01:38:00;5.60;;;2.80;;
57249;SDS011;43102;52.014;-0.680;2023-03-14T01:39:00;5.60;;;2.80;;
57249;SDS011;43102;52.014;-0.680;2023-03-14T01:40:00;5.60;;;2.80;;
57249;SDS011;43102;52.014;-0.680;2023-03-14T01:41:00;5.60;;;2.80;;
57249;SDS011;43102;52.014;-0.680;2023-03-14T01:42:01;5.60;;;2.80;;
57249;SDS011;43102;52.014;-0.680;2023-03-14T01:43:14;5.60;;;2.80;;
57249;SDS011;43102;52.014;-0.680;2023-03-14T01:44:00;5.60;;;2.80;;
57249;SDS011;43102;52.014;-0.680;2023-03-14T01:45:01;5.60;;;2.80;;
57249;SDS011;43102;52.014;-0.680;2023-03-14T01:46:13;5.60;;;2.80;;
57249;SDS011;43102;52.014;-0.680;2023-03-14T01:47:00;5.60;;;2.80;;
57249;SDS011;43102;52.014;-0.680;2023-03-14T01:48:00;5.60;;;2.80;;
57249;SDS011;43102;52.014;-0.680;2023-03-14T01:50:06;5.60;;;2.80;;
57249;SDS011;43102;52.014;-0.680;2023-03-14T01:51:01;5.60;;;2.80;;
57249;SDS011;43102;52.014;-0.680;2023-03-14T01:53:00;3.60;;;1.70;;
57249;SDS011;43102;52.014;-0.680;2023-03-14T01:54:10;3.60;;;1.70;;
57249;SDS011;43102;52.014;-0.680;2023-03-14T01:55:05;3.60;;;1.70;;
57249;SDS011;43102;52.014;-0.680;2023-03-14T01:56:00;3.60;;;1.70;;
57249;SDS011;43102;52.014;-0.680;2023-03-14T01:57:04;3.60;;;1.70;;
57249;SDS011;43102;52.014;-0.680;2023-03-14T01:58:03;3.60;;;1.70;;
57249;SDS011;43102;52.014;-0.680;2023-03-14T01:59:04;3.60;;;1.70;;
57249;SDS011;43102;52.014;-0.680;2023-03-14T02:00:03;3.60;;;1.70;;
57249;SDS011;43102;52.014;-0.680;2023-03-14T02:01:02;3.60;;;1.70;;
57249;SDS011;43102;52.014;-0.680;2023-03-14T02:02:01;3.60;;;1.70;;
57249;SDS011;43102;52.014;-0.680;2023-03-14T02:03:07;3.60;;;1.70;;
57249;SDS011;43102;52.014;-0.680;2023-03-14T02:04:02;3.60;;;1.70;;
57249;SDS011;43102;52.014;-0.680;2023-03-14T02:05:02;3.60;;;1.70;;
57249;SDS011;43102;52.014;-0.680;2023-03-14T02:06:04;3.60;;;1.70;;
57249;SDS011;43102;52.014;-0.680;2023-03-14T02:07:07;3.60;;;1.70;;
57249;SDS011;43102;52.014;-0.680;2023-03-14T02:08:02;3.60;;;1.70;;
57249;SDS011;43102;52.014;-0.680;2023-03-14T02:09:01;3.60;;;1.70;;
57249;SDS011;43102;52.014;-0.680;2023-03-14T02:10:01;3.60;;;1.70;;
57249;SDS011;43102;52.014;-0.680;2023-03-14T02:11:00;3.60;;;1.70;;
57249;SDS011;43102;52.014;-0.680;2023-03-14T02:12:00;3.60;;;1.70;;
57249;SDS011;43102;52.014;-0.680;2023-03-14T02:13:03;3.60;;;1.70;;
57249;SDS011;43102;52.014;-0.680;2023-03-14T02:14:01;3.60;;;1.70;;
57249;SDS011;43102;52.014;-0.680;2023-03-14T02:15:00;3.60;;;1.70;;
57249;SDS011;43102;52.014;-0.680;2023-03-14T02:16:00;3.60;;;1.70;;
57249;SDS011;43102;52.014;-0.680;2023-03-14T02:17:03;3.60;;;1.70;;
57249;SDS011;43102;52.014;-0.680;2023-03-14T02:18:02;3.60;;;1.70;;
57249;SDS011;43102;52.014;-0.680;2023-03-14T02:19:00;3.60;;;1.70;;
57249;SDS011;43102;52.014;-0.680;2023-03-14T02:21:12;3.60;;;1.70;;
57249;SDS011;43102;52.014;-0.680;2023-03-14T02:22:07;3.60;;;1.70;;
57249;SDS011;43102;52.014;-0.680;2023-03-14T02:23:01;3.00;;;2.10;;
57249;SDS011;43102;52.014;-0.680;2023-03-14T02:24:13;3.00;;;2.10;;
57249;SDS011;43102;52.014;-0.680;2023-03-14T02:26:06;3.00;;;2.10;;
57249;SDS011;43102;52.014;-0.680;2023-03-14T02:27:12;3.00;;;2.10;;
57249;SDS011;43102;52.014;-0.680;2023-03-14T02:28:01;3.00;;;2.10;;
57249;SDS011;43102;52.014;-0.680;2023-03-14T02:29:00;3.00;;;2.10;;
57249;SDS011;43102;52.014;-0.680;2023-03-14T02:31:01;3.00;;;2.10;;
57249;SDS011;43102;52.014;-0.680;2023-03-14T02:32:00;3.00;;;2.10;;
57249;SDS011;43102;52.014;-0.680;2023-03-14T02:33:06;3.00;;;2.10;;
57249;SDS011;43102;52.014;-0.680;2023-03-14T02:34:01;3.00;;;2.10;;
57249;SDS011;43102;52.014;-0.680;2023-03-14T02:35:05;3.00;;;2.10;;
57249;SDS011;43102;52.014;-0.680;2023-03-14T02:36:02;3.00;;;2.10;;
57249;SDS011;43102;52.014;-0.680;2023-03-14T02:37:01;3.00;;;2.10;;
57249;SDS011;43102;52.014;-0.680;2023-03-14T02:38:07;3.00;;;2.10;;
57249;SDS011;43102;52.014;-0.680;2023-03-14T02:39:11;3.00;;;2.10;;
57249;SDS011;43102;52.014;-0.680;2023-03-14T02:40:01;3.00;;;2.10;;
57249;SDS011;43102;52.014;-0.680;2023-03-14T02:41:00;3.00;;;2.10;;
57249;SDS011;43102;52.014;-0.680;2023-03-14T02:42:00;3.00;;;2.10;;
57249;SDS011;43102;52.014;-0.680;2023-03-14T02:43:00;3.00;;;2.10;;
57249;SDS011;43102;52.014;-0.680;2023-03-14T02:44:00;3.00;;;2.10;;
57249;SDS011;43102;52.014;-0.680;2023-03-14T02:46:02;3.00;;;2.10;;
57249;SDS011;43102;52.014;-0.680;2023-03-14T02:47:01;3.00;;;2.10;;
57249;SDS011;43102;52.014;-0.680;2023-03-14T02:48:07;3.00;;;2.10;;
57249;SDS011;43102;52.014;-0.680;2023-03-14T02:49:03;3.00;;;2.10;;
57249;SDS011;43102;52.014;-0.680;2023-03-14T02:50:04;3.00;;;2.10;;
57249;SDS011;43102;52.014;-0.680;2023-03-14T02:51:01;3.00;;;2.10;;
57249;SDS011;43102;52.014;-0.680;2023-03-14T02:52:00;3.00;;;2.10;;
57249;SDS011;43102;52.014;-0.680;2023-03-14T02:53:00;6.90;;;1.90;;
57249;SDS011;43102;52.014;-0.680;2023-03-14T02:54:00;6.90;;;1.90;;
57249;SDS011;43102;52.014;-0.680;2023-03-14T02:55:00;6.90;;;1.90;;
57249;SDS011;43102;52.014;-0.680;2023-03-14T02:56:01;6.90;;;1.90;;
57249;SDS011;43102;52.014;-0.680;2023-03-14T02:57:00;6.90;;;1.90;;
57249;SDS011;43102;52.014;-0.680;2023-03-14T02:58:00;6.90;;;1.90;;
57249;SDS011;43102;52.014;-0.680;2023-03-14T02:59:04;6.90;;;1.90;;
57249;SDS011;43102;52.014;-0.680;2023-03-14T03:00:01;6.90;;;1.90;;
57249;SDS011;43102;52.014;-0.680;2023-03-14T03:01:00;6.90;;;1.90;;
57249;SDS011;43102;52.014;-0.680;2023-03-14T03:02:00;6.90;;;1.90;;
57249;SDS011;43102;52.014;-0.680;2023-03-14T03:03:00;6.90;;;1.90;;
57249;SDS011;43102;52.014;-0.680;2023-03-14T03:04:00;6.90;;;1.90;;
57249;SDS011;43102;52.014;-0.680;2023-03-14T03:05:00;6.90;;;1.90;;
57249;SDS011;43102;52.014;-0.680;2023-03-14T03:06:00;6.90;;;1.90;;
57249;SDS011;43102;52.014;-0.680;2023-03-14T03:07:00;6.90;;;1.90;;
57249;SDS011;43102;52.014;-0.680;2023-03-14T03:08:00;6.90;;;1.90;;
57249;SDS011;43102;52.014;-0.680;2023-03-14T03:09:00;6.90;;;1.90;;
57249;SDS011;43102;52.014;-0.680;2023-03-14T03:10:00;6.90;;;1.90;;
57249;SDS011;43102;52.014;-0.680;2023-03-14T03:11:00;6.90;;;1.90;;
57249;SDS011;43102;52.014;-0.680;2023-03-14T03:12:00;6.90;;;1.90;;
57249;SDS011;43102;52.014;-0.680;2023-03-14T03:13:00;6.90;;;1.90;;
57249;SDS011;43102;52.014;-0.680;2023-03-14T03:14:00;6.90;;;1.90;;
57249;SDS011;43102;52.014;-0.680;2023-03-14T03:15:00;6.90;;;1.90;;
57249;SDS011;43102;52.014;-0.680;2023-03-14T03:16:01;6.90;;;1.90;;
57249;SDS011;43102;52.014;-0.680;2023-03-14T03:17:00;6.90;;;1.90;;
57249;SDS011;43102;52.014;-0.680;2023-03-14T03:18:00;6.90;;;1.90;;
57249;SDS011;43102;52.014;-0.680;2023-03-14T03:19:00;6.90;;;1.90;;
57249;SDS011;43102;52.014;-0.680;2023-03-14T03:20:00;6.90;;;1.90;;
57249;SDS011;43102;52.014;-0.680;2023-03-14T03:21:02;6.90;;;1.90;;
57249;SDS011;43102;52.014;-0.680;2023-03-14T03:22:00;6.90;;;1.90;;
57249;SDS011;43102;52.014;-0.680;2023-03-14T03:23:00;2.30;;;1.40;;
57249;SDS011;43102;52.014;-0.680;2023-03-14T03:24:00;2.30;;;1.40;;
57249;SDS011;43102;52.014;-0.680;2023-03-14T03:25:00;2.30;;;1.40;;
57249;SDS011;43102;52.014;-0.680;2023-03-14T03:26:02;2.30;;;1.40;;
57249;SDS011;43102;52.014;-0.680;2023-03-14T03:27:00;2.30;;;1.40;;
57249;SDS011;43102;52.014;-0.680;2023-03-14T03:28:00;2.30;;;1.40;;
57249;SDS011;43102;52.014;-0.680;2023-03-14T03:29:00;2.30;;;1.40;;
57249;SDS011;43102;52.014;-0.680;2023-03-14T03:30:02;2.30;;;1.40;;
57249;SDS011;43102;52.014;-0.680;2023-03-14T03:31:06;2.30;;;1.40;;
57249;SDS011;43102;52.014;-0.680;2023-03-14T03:32:00;2.30;;;1.40;;
57249;SDS011;43102;52.014;-0.680;2023-03-14T03:33:00;2.30;;;1.40;;
57249;SDS011;43102;52.014;-0.680;2023-03-14T03:34:00;2.30;;;1.40;;
57249;SDS011;43102;52.014;-0.680;2023-03-14T03:35:01;2.30;;;1.40;;
57249;SDS011;43102;52.014;-0.680;2023-03-14T03:36:00;2.30;;;1.40;;
57249;SDS011;43102;52.014;-0.680;2023-03-14T03:37:00;2.30;;;1.40;;
57249;SDS011;43102;52.014;-0.680;2023-03-14T03:38:01;2.30;;;1.40;;
57249;SDS011;43102;52.014;-0.680;2023-03-14T03:39:01;2.30;;;1.40;;
57249;SDS011;43102;52.014;-0.680;2023-03-14T03:40:01;2.30;;;1.40;;
57249;SDS011;43102;52.014;-0.680;2023-03-14T03:41:08;2.30;;;1.40;;
57249;SDS011;43102;52.014;-0.680;2023-03-14T03:42:00;2.30;;;1.40;;
57249;SDS011;43102;52.014;-0.680;2023-03-14T03:43:00;2.30;;;1.40;;
57249;SDS011;43102;52.014;-0.680;2023-03-14T03:44:00;2.30;;;1.40;;
57249;SDS011;43102;52.014;-0.680;2023-03-14T03:45:01;2.30;;;1.40;;
57249;SDS011;43102;52.014;-0.680;2023-03-14T03:46:05;2.30;;;1.40;;
57249;SDS011;43102;52.014;-0.680;2023-03-14T03:47:00;2.30;;;1.40;;
57249;SDS011;43102;52.014;-0.680;2023-03-14T03:48:00;2.30;;;1.40;;
57249;SDS011;43102;52.014;-0.680;2023-03-14T03:49:00;2.30;;;1.40;;
57249;SDS011;43102;52.014;-0.680;2023-03-14T03:50:00;2.30;;;1.40;;
57249;SDS011;43102;52.014;-0.680;2023-03-14T03:51:00;2.30;;;1.40;;
57249;SDS011;43102;52.014;-0.680;2023-03-14T03:52:00;2.30;;;1.40;;
57249;SDS011;43102;52.014;-0.680;2023-03-14T03:53:00;4.40;;;1.90;;
57249;SDS011;43102;52.014;-0.680;2023-03-14T03:54:00;4.40;;;1.90;;
57249;SDS011;43102;52.014;-0.680;2023-03-14T03:55:00;4.40;;;1.90;;
57249;SDS011;43102;52.014;-0.680;2023-03-14T03:56:01;4.40;;;1.90;;
57249;SDS011;43102;52.014;-0.680;2023-03-14T03:57:00;4.40;;;1.90;;
57249;SDS011;43102;52.014;-0.680;2023-03-14T03:58:00;4.40;;;1.90;;
57249;SDS011;43102;52.014;-0.680;2023-03-14T03:59:01;4.40;;;1.90;;
57249;SDS011;43102;52.014;-0.680;2023-03-14T04:00:00;4.40;;;1.90;;
57249;SDS011;43102;52.014;-0.680;2023-03-14T04:01:01;4.40;;;1.90;;
57249;SDS011;43102;52.014;-0.680;2023-03-14T04:02:00;4.40;;;1.90;;
57249;SDS011;43102;52.014;-0.680;2023-03-14T04:03:00;4.40;;;1.90;;
57249;SDS011;43102;52.014;-0.680;2023-03-14T04:04:01;4.40;;;1.90;;
57249;SDS011;43102;52.014;-0.680;2023-03-14T04:05:00;4.40;;;1.90;;
57249;SDS011;43102;52.014;-0.680;2023-03-14T04:06:03;4.40;;;1.90;;
57249;SDS011;43102;52.014;-0.680;2023-03-14T04:07:00;4.40;;;1.90;;
57249;SDS011;43102;52.014;-0.680;2023-03-14T04:08:01;4.40;;;1.90;;
57249;SDS011;43102;52.014;-0.680;2023-03-14T04:09:00;4.40;;;1.90;;
57249;SDS011;43102;52.014;-0.680;2023-03-14T04:10:00;4.40;;;1.90;;
57249;SDS011;43102;52.014;-0.680;2023-03-14T04:11:01;4.40;;;1.90;;
57249;SDS011;43102;52.014;-0.680;2023-03-14T04:12:00;4.40;;;1.90;;
57249;SDS011;43102;52.014;-0.680;2023-03-14T04:13:00;4.40;;;1.90;;
57249;SDS011;43102;52.014;-0.680;2023-03-14T04:14:00;4.40;;;1.90;;
57249;SDS011;43102;52.014;-0.680;2023-03-14T04:15:00;4.40;;;1.90;;
57249;SDS011;43102;52.014;-0.680;2023-03-14T04:16:00;4.40;;;1.90;;
57249;SDS011;43102;52.014;-0.680;2023-03-14T04:17:00;4.40;;;1.90;;
57249;SDS011;43102;52.014;-0.680;2023-03-14T04:18:00;4.40;;;1.90;;
57249;SDS011;43102;52.014;-0.680;2023-03-14T04:19:02;4.40;;;1.90;;
57249;SDS011;43102;52.014;-0.680;2023-03-14T04:20:00;4.40;;;1.90;;
57249;SDS011;43102;52.014;-0.680;2023-03-14T04:21:00;4.40;;;1.90;;
57249;SDS011;43102;52.014;-0.680;2023-03-14T04:22:01;4.40;;;1.90;;
57249;SDS011;43102;52.014;-0.680;2023-03-14T04:23:00;3.70;;;1.80;;
57249;SDS011;43102;52.014;-0.680;2023-03-14T04:24:00;3.70;;;1.80;;
57249;SDS011;43102;52.014;-0.680;2023-03-14T04:25:02;3.70;;;1.80;;
57249;SDS011;43102;52.014;-0.680;2023-03-14T04:26:00;3.70;;;1.80;;
57249;SDS011;43102;52.014;-0.680;2023-03-14T04:27:00;3.70;;;1.80;;
57249;SDS011;43102;52.014;-0.680;2023-03-14T04:28:01;3.70;;;1.80;;
57249;SDS011;43102;52.014;-0.680;2023-03-14T04:29:00;3.70;;;1.80;;
57249;SDS011;43102;52.014;-0.680;2023-03-14T04:30:02;3.70;;;1.80;;
57249;SDS011;43102;52.014;-0.680;2023-03-14T04:31:06;3.70;;;1.80;;
57249;SDS011;43102;52.014;-0.680;2023-03-14T04:32:00;3.70;;;1.80;;
57249;SDS011;43102;52.014;-0.680;2023-03-14T04:33:00;3.70;;;1.80;;
57249;SDS011;43102;52.014;-0.680;2023-03-14T04:34:00;3.70;;;1.80;;
57249;SDS011;43102;52.014;-0.680;2023-03-14T04:35:00;3.70;;;1.80;;
57249;SDS011;43102;52.014;-0.680;2023-03-14T04:36:00;3.70;;;1.80;;
57249;SDS011;43102;52.014;-0.680;2023-03-14T04:37:00;3.70;;;1.80;;
57249;SDS011;43102;52.014;-0.680;2023-03-14T04:38:00;3.70;;;1.80;;
57249;SDS011;43102;52.014;-0.680;2023-03-14T04:39:00;3.70;;;1.80;;
57249;SDS011;43102;52.014;-0.680;2023-03-14T04:40:01;3.70;;;1.80;;
57249;SDS011;43102;52.014;-0.680;2023-03-14T04:41:01;3.70;;;1.80;;
57249;SDS011;43102;52.014;-0.680;2023-03-14T04:42:00;3.70;;;1.80;;
57249;SDS011;43102;52.014;-0.680;2023-03-14T04:43:00;3.70;;;1.80;;
57249;SDS011;43102;52.014;-0.680;2023-03-14T04:44:00;3.70;;;1.80;;
57249;SDS011;43102;52.014;-0.680;2023-03-14T04:45:00;3.70;;;1.80;;
57249;SDS011;43102;52.014;-0.680;2023-03-14T04:46:01;3.70;;;1.80;;
57249;SDS011;43102;52.014;-0.680;2023-03-14T04:47:00;3.70;;;1.80;;
57249;SDS011;43102;52.014;-0.680;2023-03-14T04:48:00;3.70;;;1.80;;
57249;SDS011;43102;52.014;-0.680;2023-03-14T04:49:00;3.70;;;1.80;;
57249;SDS011;43102;52.014;-0.680;2023-03-14T04:50:01;3.70;;;1.80;;
57249;SDS011;43102;52.014;-0.680;2023-03-14T04:51:00;3.70;;;1.80;;
57249;SDS011;43102;52.014;-0.680;2023-03-14T04:52:00;3.70;;;1.80;;
57249;SDS011;43102;52.014;-0.680;2023-03-14T04:53:00;5.60;;;2.10;;
57249;SDS011;43102;52.014;-0.680;2023-03-14T04:54:00;5.60;;;2.10;;
57249;SDS011;43102;52.014;-0.680;2023-03-14T04:55:00;5.60;;;2.10;;
57249;SDS011;43102;52.014;-0.680;2023-03-14T04:56:01;5.60;;;2.10;;
57249;SDS011;43102;52.014;-0.680;2023-03-14T04:57:00;5.60;;;2.10;;
57249;SDS011;43102;52.014;-0.680;2023-03-14T04:58:00;5.60;;;2.10;;
57249;SDS011;43102;52.014;-0.680;2023-03-14T04:59:00;5.60;;;2.10;;
57249;SDS011;43102;52.014;-0.680;2023-03-14T05:00:00;5.60;;;2.10;;
57249;SDS011;43102;52.014;-0.680;2023-03-14T05:01:03;5.60;;;2.10;;
57249;SDS011;43102;52.014;-0.680;2023-03-14T05:02:00;5.60;;;2.10;;
57249;SDS011;43102;52.014;-0.680;2023-03-14T05:03:00;5.60;;;2.10;;
57249;SDS011;43102;52.014;-0.680;2023-03-14T05:04:00;5.60;;;2.10;;
57249;SDS011;43102;52.014;-0.680;2023-03-14T05:05:00;5.60;;;2.10;;
57249;SDS011;43102;52.014;-0.680;2023-03-14T05:06:00;5.60;;;2.10;;
57249;SDS011;43102;52.014;-0.680;2023-03-14T05:07:00;5.60;;;2.10;;
57249;SDS011;43102;52.014;-0.680;2023-03-14T05:08:00;5.60;;;2.10;;
57249;SDS011;43102;52.014;-0.680;2023-03-14T05:09:00;5.60;;;2.10;;
57249;SDS011;43102;52.014;-0.680;2023-03-14T05:10:00;5.60;;;2.10;;
57249;SDS011;43102;52.014;-0.680;2023-03-14T05:11:00;5.60;;;2.10;;
57249;SDS011;43102;52.014;-0.680;2023-03-14T05:12:00;5.60;;;2.10;;
57249;SDS011;43102;52.014;-0.680;2023-03-14T05:13:00;5.60;;;2.10;;
57249;SDS011;43102;52.014;-0.680;2023-03-14T05:14:00;5.60;;;2.10;;
57249;SDS011;43102;52.014;-0.680;2023-03-14T05:15:01;5.60;;;2.10;;
57249;SDS011;43102;52.014;-0.680;2023-03-14T05:16:05;5.60;;;2.10;;
57249;SDS011;43102;52.014;-0.680;2023-03-14T05:17:00;5.60;;;2.10;;
57249;SDS011;43102;52.014;-0.680;2023-03-14T05:18:00;5.60;;;2.10;;
57249;SDS011;43102;52.014;-0.680;2023-03-14T05:19:01;5.60;;;2.10;;
57249;SDS011;43102;52.014;-0.680;2023-03-14T05:20:00;5.60;;;2.10;;
57249;SDS011;43102;52.014;-0.680;2023-03-14T05:21:00;5.60;;;2.10;;
57249;SDS011;43102;52.014;-0.680;2023-03-14T05:22:00;5.60;;;2.10;;
57249;SDS011;43102;52.014;-0.680;2023-03-14T05:23:00;8.10;;;2.60;;
57249;SDS011;43102;52.014;-0.680;2023-03-14T05:24:00;8.10;;;2.60;;
57249;SDS011;43102;52.014;-0.680;2023-03-14T05:25:00;8.10;;;2.60;;
57249;SDS011;43102;52.014;-0.680;2023-03-14T05:26:00;8.10;;;2.60;;
57249;SDS011;43102;52.014;-0.680;2023-03-14T05:27:00;8.10;;;2.60;;
57249;SDS011;43102;52.014;-0.680;2023-03-14T05:28:01;8.10;;;2.60;;
57249;SDS011;43102;52.014;-0.680;2023-03-14T05:29:00;8.10;;;2.60;;
57249;SDS011;43102;52.014;-0.680;2023-03-14T05:30:01;8.10;;;2.60;;
57249;SDS011;43102;52.014;-0.680;2023-03-14T05:31:00;8.10;;;2.60;;
57249;SDS011;43102;52.014;-0.680;2023-03-14T05:32:00;8.10;;;2.60;;
57249;SDS011;43102;52.014;-0.680;2023-03-14T05:33:01;8.10;;;2.60;;
57249;SDS011;43102;52.014;-0.680;2023-03-14T05:34:00;8.10;;;2.60;;
57249;SDS011;43102;52.014;-0.680;2023-03-14T05:35:00;8.10;;;2.60;;
57249;SDS011;43102;52.014;-0.680;2023-03-14T05:36:00;8.10;;;2.60;;
57249;SDS011;43102;52.014;-0.680;2023-03-14T05:37:00;8.10;;;2.60;;
57249;SDS011;43102;52.014;-0.680;2023-03-14T05:38:00;8.10;;;2.60;;
57249;SDS011;43102;52.014;-0.680;2023-03-14T05:39:00;8.10;;;2.60;;
57249;SDS011;43102;52.014;-0.680;2023-03-14T05:40:00;8.10;;;2.60;;
57249;SDS011;43102;52.014;-0.680;2023-03-14T05:41:00;8.10;;;2.60;;
57249;SDS011;43102;52.014;-0.680;2023-03-14T05:42:00;8.10;;;2.60;;
57249;SDS011;43102;52.014;-0.680;2023-03-14T05:43:00;8.10;;;2.60;;
57249;SDS011;43102;52.014;-0.680;2023-03-14T05:44:00;8.10;;;2.60;;
57249;SDS011;43102;52.014;-0.680;2023-03-14T05:45:00;8.10;;;2.60;;
57249;SDS011;43102;52.014;-0.680;2023-03-14T05:46:00;8.10;;;2.60;;
57249;SDS011;43102;52.014;-0.680;2023-03-14T05:47:00;8.10;;;2.60;;
57249;SDS011;43102;52.014;-0.680;2023-03-14T05:48:00;8.10;;;2.60;;
57249;SDS011;43102;52.014;-0.680;2023-03-14T05:49:01;8.10;;;2.60;;
57249;SDS011;43102;52.014;-0.680;2023-03-14T05:50:00;8.10;;;2.60;;
57249;SDS011;43102;52.014;-0.680;2023-03-14T05:51:00;8.10;;;2.60;;
57249;SDS011;43102;52.014;-0.680;2023-03-14T05:52:01;8.10;;;2.60;;
57249;SDS011;43102;52.014;-0.680;2023-03-14T05:53:00;8.80;;;2.10;;
57249;SDS011;43102;52.014;-0.680;2023-03-14T05:54:00;8.80;;;2.10;;
57249;SDS011;43102;52.014;-0.680;2023-03-14T05:55:00;8.80;;;2.10;;
57249;SDS011;43102;52.014;-0.680;2023-03-14T05:56:00;8.80;;;2.10;;
57249;SDS011;43102;52.014;-0.680;2023-03-14T05:57:00;8.80;;;2.10;;
57249;SDS011;43102;52.014;-0.680;2023-03-14T05:58:00;8.80;;;2.10;;
57249;SDS011;43102;52.014;-0.680;2023-03-14T05:59:03;8.80;;;2.10;;
57249;SDS011;43102;52.014;-0.680;2023-03-14T06:00:00;8.80;;;2.10;;
57249;SDS011;43102;52.014;-0.680;2023-03-14T06:01:03;8.80;;;2.10;;